Time;durP1;ratioP1;P1;durP2;ratioP2;P2;SDS_P1;SDS_P2;PMS_P1;PMS_P2;Temp;Humidity;BMP_temperature;BMP_pressure;BME280_temperature;BME280_humidity;BME280_pressure;Samples;Min_cycle;Max_cycle;Signal;HPM_P1;HPM_P2
2021/08/29 00:00:06;;;;;;;4.75;1.77;;;16.10;81.50;;;;;;5054486;28;20008;-76
2021/08/29 00:02:32;;;;;;;4.10;1.90;;;16.10;81.50;;;;;;5072487;28;20183;-75
2021/08/29 00:04:57;;;;;;;4.07;2.10;;;16.10;81.50;;;;;;5072456;28;20048;-76
2021/08/29 00:07:23;;;;;;;4.60;1.83;;;16.10;81.50;;;;;;5072423;28;20052;-76
2021/08/29 00:09:49;;;;;;;3.60;1.60;;;16.10;81.50;;;;;;5054306;28;20115;-76
2021/08/29 00:12:14;;;;;;;3.25;1.80;;;16.10;81.60;;;;;;5055365;28;20024;-76
2021/08/29 00:14:40;;;;;;;2.92;1.67;;;16.10;81.60;;;;;;5058450;28;20012;-76
2021/08/29 00:17:06;;;;;;;2.78;1.70;;;16.10;81.60;;;;;;5076457;28;20044;-76
2021/08/29 00:19:32;;;;;;;4.13;1.98;;;16.20;81.60;;;;;;5058268;28;20017;-76
2021/08/29 00:21:57;;;;;;;3.25;1.50;;;16.20;81.60;;;;;;5058215;28;20025;-76
2021/08/29 00:24:23;;;;;;;4.65;1.70;;;16.20;81.60;;;;;;5076177;28;20059;-77
2021/08/29 00:26:48;;;;;;;3.17;1.70;;;16.20;81.60;;;;;;5075939;28;20383;-76
2021/08/29 00:29:14;;;;;;;4.35;1.92;;;16.20;81.60;;;;;;5058188;28;20029;-77
2021/08/29 00:31:39;;;;;;;3.92;1.85;;;16.20;81.70;;;;;;5058484;28;20396;-76
2021/08/29 00:34:05;;;;;;;2.92;1.70;;;16.10;81.60;;;;;;5075945;28;20100;-76
2021/08/29 00:36:30;;;;;;;3.85;1.80;;;16.20;81.70;;;;;;5057918;28;20052;-75
2021/08/29 00:38:56;;;;;;;5.55;1.85;;;16.20;81.80;;;;;;5075890;28;20031;-75
2021/08/29 00:41:22;;;;;;;3.65;1.80;;;16.20;81.80;;;;;;5057972;28;20024;-75
2021/08/29 00:43:47;;;;;;;3.85;1.95;;;16.20;82.40;;;;;;5075692;28;20105;-75
2021/08/29 00:46:13;;;;;;;3.03;1.80;;;16.20;81.80;;;;;;5057888;28;20021;-75
2021/08/29 00:48:43;;;;;;;3.80;1.90;;;16.20;81.80;;;;;;5075654;28;20021;-75
2021/08/29 00:51:09;;;;;;;3.20;1.60;;;16.20;81.90;;;;;;5075586;28;20029;-76
2021/08/29 00:53:35;;;;;;;5.28;1.80;;;16.20;81.90;;;;;;5057576;28;20066;-75
2021/08/29 00:56:00;;;;;;;3.70;1.88;;;16.20;82.00;;;;;;5057861;28;20020;-76
2021/08/29 00:58:30;;;;;;;2.00;1.60;;;16.20;81.90;;;;;;5075481;28;20016;-76
2021/08/29 01:00:57;;;;;;;5.78;1.80;;;16.20;82.00;;;;;;5057671;28;20032;-76
2021/08/29 01:03:28;;;;;;;3.53;1.73;;;16.20;82.00;;;;;;5075425;28;20031;-76
2021/08/29 01:06:06;;;;;;;3.58;1.75;;;16.20;82.00;;;;;;5075264;28;20028;-76
2021/08/29 01:08:37;;;;;;;3.88;1.60;;;16.20;82.10;;;;;;5075335;28;20102;-76
2021/08/29 01:14:26;;;;;;;4.13;1.90;;;16.20;82.00;;;;;;5075579;28;20027;-76
2021/08/29 01:16:56;;;;;;;3.05;1.55;;;16.20;82.00;;;;;;5075278;28;20020;-76
2021/08/29 01:19:45;;;;;;;5.05;2.08;;;16.20;82.10;;;;;;5090710;28;20025;-75
2021/08/29 01:22:10;;;;;;;4.93;1.73;;;16.20;82.20;;;;;;5056430;28;20442;-76
2021/08/29 01:24:38;;;;;;;4.15;1.80;;;16.20;82.10;;;;;;5074017;28;20100;-77
2021/08/29 01:27:25;;;;;;;5.20;1.98;;;16.20;82.20;;;;;;5074871;28;20041;-77
2021/08/29 01:29:51;;;;;;;4.40;1.88;;;16.30;82.20;;;;;;5056916;28;20056;-76
2021/08/29 01:32:20;;;;;;;2.80;1.63;;;16.30;82.20;;;;;;5074953;28;20540;-77
2021/08/29 01:34:47;;;;;;;4.30;1.85;;;16.30;82.20;;;;;;5056772;28;20032;-76
2021/08/29 01:37:14;;;;;;;2.40;1.63;;;16.30;82.20;;;;;;5074812;28;20031;-76
2021/08/29 01:39:40;;;;;;;4.50;1.90;;;16.30;82.20;;;;;;5074812;28;20021;-76
2021/08/29 01:42:06;;;;;;;5.78;1.90;;;16.30;82.20;;;;;;5074793;28;20384;-77
2021/08/29 01:44:32;;;;;;;3.88;2.00;;;16.30;82.30;;;;;;5090191;28;20450;-77
2021/08/29 01:46:58;;;;;;;4.35;2.08;;;16.30;82.30;;;;;;5056609;28;20028;-76
2021/08/29 01:49:27;;;;;;;5.07;2.35;;;16.30;82.30;;;;;;5074588;28;20028;-76
2021/08/29 01:51:53;;;;;;;5.43;1.95;;;16.30;82.40;;;;;;5056469;28;20039;-76
2021/08/29 01:54:21;;;;;;;4.72;1.80;;;16.30;82.40;;;;;;5056417;28;20025;-76
2021/08/29 01:57:03;;;;;;;5.63;1.90;;;16.30;82.30;;;;;;5074440;28;20028;-76
2021/08/29 01:59:30;;;;;;;4.75;2.15;;;16.30;82.30;;;;;;5056388;28;20093;-76
2021/08/29 02:01:57;;;;;;;5.60;2.05;;;16.30;82.30;;;;;;5056404;28;20147;-76
2021/08/29 02:04:24;;;;;;;4.43;1.83;;;16.30;82.30;;;;;;5056312;28;20492;-76
2021/08/29 02:06:58;;;;;;;4.68;2.17;;;16.40;82.40;;;;;;5074283;28;20029;-76
2021/08/29 02:09:28;;;;;;;5.20;2.20;;;16.40;82.30;;;;;;5089944;28;20464;-76
2021/08/29 02:11:54;;;;;;;4.03;2.20;;;16.40;82.30;;;;;;5056131;28;20111;-76
2021/08/29 02:14:23;;;;;;;6.18;2.38;;;16.40;82.30;;;;;;5089649;28;20493;-76
2021/08/29 02:16:50;;;;;;;5.82;2.30;;;16.40;82.30;;;;;;5074073;28;20059;-77
2021/08/29 02:19:35;;;;;;;3.95;1.98;;;16.40;82.30;;;;;;5073960;28;20100;-76
2021/08/29 02:22:01;;;;;;;2.88;1.92;;;16.40;82.30;;;;;;5089585;28;20066;-77
2021/08/29 02:24:29;;;;;;;4.82;1.98;;;16.40;82.40;;;;;;5055938;28;20063;-77
2021/08/29 02:26:55;;;;;;;5.28;1.90;;;16.40;82.40;;;;;;5089398;28;20048;-77
2021/08/29 02:29:21;;;;;;;3.85;1.98;;;16.30;82.40;;;;;;5073796;28;20044;-77
2021/08/29 02:31:49;;;;;;;3.80;2.13;;;16.40;82.40;;;;;;5089251;28;20062;-76
2021/08/29 02:34:14;;;;;;;5.28;2.10;;;16.30;82.40;;;;;;5055873;28;20044;-77
2021/08/29 02:36:41;;;;;;;6.75;2.08;;;16.30;82.40;;;;;;5055530;28;20020;-77
2021/08/29 02:39:08;;;;;;;3.65;2.17;;;16.30;82.40;;;;;;5073695;28;20519;-77
2021/08/29 02:41:36;;;;;;;3.53;2.13;;;16.30;82.40;;;;;;5073723;28;20020;-76
2021/08/29 02:44:02;;;;;;;4.55;2.20;;;16.30;82.40;;;;;;5073520;28;20020;-77
2021/08/29 02:46:28;;;;;;;6.18;2.28;;;16.30;82.40;;;;;;5073513;28;20100;-76
2021/08/29 02:48:54;;;;;;;4.25;2.65;;;16.30;82.30;;;;;;5073519;28;20398;-76
2021/08/29 02:51:22;;;;;;;3.58;2.25;;;16.30;82.30;;;;;;5073159;28;20111;-76
2021/08/29 02:53:48;;;;;;;6.80;2.75;;;16.40;82.30;;;;;;5073553;28;20012;-76
2021/08/29 02:56:17;;;;;;;4.20;2.90;;;16.30;82.20;;;;;;5073477;28;20507;-76
2021/08/29 02:58:44;;;;;;;5.68;3.20;;;16.40;82.30;;;;;;5055442;28;20111;-77
2021/08/29 03:01:10;;;;;;;6.97;4.35;;;16.40;82.20;;;;;;5055309;28;20020;-76
2021/08/29 03:03:36;;;;;;;9.50;4.43;;;16.40;82.10;;;;;;5055325;28;20424;-77
2021/08/29 03:06:02;;;;;;;9.63;5.65;;;16.40;82.10;;;;;;5055148;28;20017;-76
2021/08/29 03:08:28;;;;;;;9.27;6.15;;;16.40;82.10;;;;;;5055234;28;20029;-76
2021/08/29 03:10:53;;;;;;;12.88;6.93;;;16.30;82.00;;;;;;5054952;28;20388;-77
2021/08/29 03:13:20;;;;;;;10.25;6.88;;;16.30;82.00;;;;;;5072968;28;20051;-76
2021/08/29 03:15:45;;;;;;;13.00;7.55;;;16.30;82.00;;;;;;5073080;28;20404;-77
2021/08/29 03:18:11;;;;;;;12.48;7.35;;;16.30;81.90;;;;;;5055174;28;20021;-76
2021/08/29 03:20:37;;;;;;;11.13;6.90;;;16.30;81.90;;;;;;5054895;28;20111;-76
2021/08/29 03:23:03;;;;;;;13.27;7.70;;;16.30;81.90;;;;;;5055062;28;20016;-76
2021/08/29 03:25:29;;;;;;;13.00;7.93;;;16.40;82.00;;;;;;5072757;28;20050;-77
2021/08/29 03:27:55;;;;;;;12.05;8.00;;;16.30;82.00;;;;;;5054931;28;20048;-76
2021/08/29 03:30:20;;;;;;;12.57;7.90;;;16.30;82.10;;;;;;5088441;28;20021;-76
2021/08/29 03:32:46;;;;;;;16.23;8.70;;;16.30;82.30;;;;;;5072768;28;20059;-77
2021/08/29 03:35:13;;;;;;;14.60;7.85;;;16.30;82.40;;;;;;5054726;28;20322;-75
2021/08/29 03:37:44;;;;;;;11.82;8.07;;;16.20;82.50;;;;;;5054740;28;20112;-77
2021/08/29 03:40:11;;;;;;;13.10;8.07;;;16.20;82.60;;;;;;5072737;28;20021;-76
2021/08/29 03:42:38;;;;;;;12.50;7.40;;;16.20;82.70;;;;;;5072820;28;20048;-76
2021/08/29 03:45:06;;;;;;;9.00;6.43;;;16.20;82.80;;;;;;5072849;28;20028;-76
2021/08/29 03:47:31;;;;;;;11.18;6.85;;;16.20;82.90;;;;;;5054137;28;20021;-76
2021/08/29 03:50:02;;;;;;;10.43;6.72;;;16.20;82.90;;;;;;5072602;28;20031;-76
2021/08/29 03:52:27;;;;;;;9.40;5.65;;;16.20;83.00;;;;;;5054772;28;20521;-77
2021/08/29 03:54:53;;;;;;;7.38;4.97;;;16.20;83.00;;;;;;5072729;28;20016;-77
2021/08/29 03:57:19;;;;;;;7.57;4.78;;;16.20;83.00;;;;;;5072607;28;20418;-76
2021/08/29 03:59:45;;;;;;;7.97;5.03;;;16.20;83.00;;;;;;5072610;28;20016;-77
2021/08/29 04:02:10;;;;;;;7.15;4.15;;;16.20;83.00;;;;;;5072607;28;20032;-77
2021/08/29 04:04:36;;;;;;;10.23;4.30;;;16.20;83.00;;;;;;5054659;28;20051;-77
2021/08/29 04:07:04;;;;;;;6.10;3.65;;;16.20;83.10;;;;;;5072531;28;20025;-76
2021/08/29 04:09:32;;;;;;;5.95;3.53;;;16.20;83.10;;;;;;5054455;28;20024;-77
2021/08/29 04:11:58;;;;;;;5.07;3.67;;;16.20;83.10;;;;;;5072462;28;20500;-77
2021/08/29 04:14:26;;;;;;;5.55;3.10;;;16.20;83.10;;;;;;5072438;28;20021;-76
2021/08/29 04:16:54;;;;;;;4.88;3.00;;;16.10;83.10;;;;;;5054526;28;20070;-76
2021/08/29 04:19:21;;;;;;;6.18;2.80;;;16.20;83.70;;;;;;5087922;28;20021;-76
2021/08/29 04:21:47;;;;;;;6.00;2.47;;;16.20;83.10;;;;;;5072450;28;20024;-76
2021/08/29 04:24:13;;;;;;;5.22;2.58;;;16.20;83.10;;;;;;5072395;28;20085;-76
2021/08/29 04:26:39;;;;;;;5.43;2.45;;;16.20;83.20;;;;;;5054189;28;20131;-77
2021/08/29 04:29:05;;;;;;;3.28;2.40;;;16.20;83.20;;;;;;5054366;28;20027;-76
2021/08/29 04:31:32;;;;;;;3.45;2.15;;;16.20;83.20;;;;;;5054259;28;20426;-76
2021/08/29 04:34:07;;;;;;;3.60;2.10;;;16.20;83.20;;;;;;5072258;28;20074;-77
2021/08/29 04:36:35;;;;;;;5.32;2.25;;;16.20;83.40;;;;;;5054172;28;20036;-77
2021/08/29 04:39:07;;;;;;;4.45;2.20;;;16.20;83.30;;;;;;5072186;28;20499;-77
2021/08/29 04:41:33;;;;;;;3.78;1.90;;;16.20;83.30;;;;;;5072229;28;20059;-77
2021/08/29 04:44:00;;;;;;;4.32;2.13;;;16.20;83.30;;;;;;5072098;28;20056;-77
2021/08/29 04:46:25;;;;;;;5.18;1.85;;;16.20;83.40;;;;;;5054408;28;20031;-76
2021/08/29 04:48:51;;;;;;;6.15;2.10;;;16.30;83.40;;;;;;5054208;28;20025;-77
2021/08/29 04:51:16;;;;;;;5.35;2.10;;;16.20;83.40;;;;;;5071893;28;20103;-76
2021/08/29 04:53:42;;;;;;;4.97;2.03;;;16.30;83.50;;;;;;5071995;28;20100;-77
2021/08/29 04:56:07;;;;;;;4.40;2.10;;;16.30;83.50;;;;;;5071916;28;20052;-76
2021/08/29 04:58:33;;;;;;;4.07;2.33;;;16.20;83.60;;;;;;5071979;28;20427;-77
2021/08/29 05:00:59;;;;;;;3.70;1.92;;;16.30;83.70;;;;;;5057349;28;20337;-77
2021/08/29 05:03:24;;;;;;;4.60;2.03;;;16.20;83.60;;;;;;5075594;28;20021;-77
2021/08/29 05:05:50;;;;;;;4.40;2.00;;;16.20;83.70;;;;;;5075408;28;20016;-77
2021/08/29 05:08:15;;;;;;;5.22;2.10;;;16.30;83.80;;;;;;5057355;28;20017;-77
2021/08/29 05:10:41;;;;;;;5.32;1.90;;;16.30;83.80;;;;;;5075319;28;20488;-76
2021/08/29 05:13:07;;;;;;;5.97;2.30;;;16.30;83.80;;;;;;5057363;28;20518;-76
2021/08/29 05:15:32;;;;;;;4.05;1.77;;;16.30;83.70;;;;;;5075231;28;20110;-76
2021/08/29 05:17:58;;;;;;;4.28;1.80;;;16.40;83.80;;;;;;5057344;28;20013;-77
2021/08/29 05:20:25;;;;;;;5.20;1.70;;;16.40;83.80;;;;;;5075149;28;20031;-77
2021/08/29 05:22:50;;;;;;;4.13;1.95;;;16.40;83.70;;;;;;5075255;28;20096;-77
2021/08/29 05:25:16;;;;;;;6.10;1.92;;;16.40;83.70;;;;;;5075009;28;20580;-76
2021/08/29 05:27:42;;;;;;;6.53;2.05;;;16.40;83.80;;;;;;5074990;28;20503;-77
2021/08/29 05:30:08;;;;;;;3.40;1.77;;;16.40;83.70;;;;;;5074993;28;20545;-77
2021/08/29 05:32:33;;;;;;;5.50;2.10;;;16.50;83.80;;;;;;5074894;28;20059;-76
2021/08/29 05:34:59;;;;;;;7.05;2.17;;;16.50;83.80;;;;;;5056874;28;20024;-77
2021/08/29 05:37:24;;;;;;;4.95;2.00;;;16.50;83.90;;;;;;5074936;28;20032;-77
2021/08/29 05:39:50;;;;;;;5.95;1.80;;;16.50;83.90;;;;;;5074853;28;20430;-76
2021/08/29 05:42:16;;;;;;;5.65;2.13;;;16.50;83.90;;;;;;5074913;28;20033;-76
2021/08/29 05:44:41;;;;;;;4.32;1.60;;;16.50;83.80;;;;;;5074965;28;20114;-77
2021/08/29 05:47:07;;;;;;;6.88;1.80;;;16.50;83.80;;;;;;5056688;28;20035;-76
2021/08/29 05:49:32;;;;;;;7.38;2.00;;;16.60;83.80;;;;;;5056527;28;20475;-77
2021/08/29 05:52:01;;;;;;;4.43;1.95;;;16.60;83.70;;;;;;5074617;28;20036;-77
2021/08/29 05:54:27;;;;;;;4.88;1.98;;;16.60;83.70;;;;;;5074508;28;20506;-77
2021/08/29 05:56:52;;;;;;;4.57;1.67;;;16.60;83.70;;;;;;5074491;28;20021;-77
2021/08/29 05:59:18;;;;;;;5.57;2.13;;;16.70;83.70;;;;;;5056376;28;20013;-77
2021/08/29 06:01:43;;;;;;;6.07;1.88;;;16.70;83.60;;;;;;5056525;28;20392;-76
2021/08/29 06:04:09;;;;;;;6.38;1.92;;;16.70;83.60;;;;;;5056348;28;20039;-77
2021/08/29 06:06:35;;;;;;;6.03;1.90;;;16.70;83.60;;;;;;5074296;28;20024;-76
2021/08/29 06:09:01;;;;;;;6.35;2.10;;;16.70;83.60;;;;;;5074465;28;20036;-77
2021/08/29 06:11:27;;;;;;;3.95;1.80;;;16.70;83.90;;;;;;5089108;28;20021;-77
2021/08/29 06:13:53;;;;;;;3.95;1.70;;;16.70;83.50;;;;;;5074129;28;20480;-77
2021/08/29 06:16:18;;;;;;;5.28;1.80;;;16.80;83.50;;;;;;5073998;28;20047;-77
2021/08/29 06:18:44;;;;;;;4.63;1.60;;;16.80;83.40;;;;;;5073993;28;20096;-76
2021/08/29 06:21:10;;;;;;;4.45;1.95;;;16.80;83.40;;;;;;5055913;28;20404;-77
2021/08/29 06:23:35;;;;;;;6.25;2.05;;;16.80;83.30;;;;;;5074013;28;20036;-76
2021/08/29 06:26:01;;;;;;;5.75;2.20;;;16.80;83.30;;;;;;5073748;28;20491;-76
2021/08/29 06:28:26;;;;;;;7.10;2.20;;;16.90;83.30;;;;;;5073800;28;20488;-77
2021/08/29 06:30:52;;;;;;;4.72;1.83;;;16.90;83.30;;;;;;5073927;28;20043;-77
2021/08/29 06:33:17;;;;;;;5.72;2.10;;;16.90;83.20;;;;;;5073758;28;20110;-76
2021/08/29 06:35:43;;;;;;;5.82;2.00;;;16.90;83.20;;;;;;5073585;28;20024;-77
2021/08/29 06:38:09;;;;;;;6.95;2.08;;;16.90;83.10;;;;;;5055604;28;20100;-77
2021/08/29 06:40:34;;;;;;;4.30;2.00;;;16.90;83.10;;;;;;5055694;28;20016;-76
2021/08/29 06:43:00;;;;;;;2.67;1.60;;;16.90;83.10;;;;;;5055992;28;20024;-76
2021/08/29 06:45:26;;;;;;;6.20;1.90;;;17.00;83.10;;;;;;5073523;28;20025;-76
2021/08/29 06:47:51;;;;;;;4.85;2.10;;;17.00;83.10;;;;;;5055558;28;20028;-76
2021/08/29 06:50:17;;;;;;;5.05;1.77;;;17.00;83.00;;;;;;5073447;28;20028;-76
2021/08/29 06:52:42;;;;;;;5.30;1.95;;;17.00;83.00;;;;;;5073681;28;20025;-77
2021/08/29 06:55:08;;;;;;;4.60;1.80;;;17.00;82.90;;;;;;5055458;28;20028;-76
2021/08/29 06:57:34;;;;;;;4.50;1.95;;;17.10;83.00;;;;;;5055324;28;20078;-77
2021/08/29 07:00:00;;;;;;;3.92;1.85;;;17.10;83.00;;;;;;5073340;28;20025;-77
2021/08/29 07:02:25;;;;;;;4.65;1.55;;;17.10;82.90;;;;;;5055261;28;20028;-77
2021/08/29 07:04:54;;;;;;;6.75;2.00;;;17.10;82.90;;;;;;5055142;28;20020;-77
2021/08/29 07:07:19;;;;;;;5.53;1.90;;;17.20;82.80;;;;;;5073083;28;20504;-77
2021/08/29 07:09:45;;;;;;;5.90;1.70;;;17.20;82.70;;;;;;5055238;28;20027;-77
2021/08/29 07:12:11;;;;;;;5.68;2.13;;;17.20;82.70;;;;;;5072958;28;20031;-76
2021/08/29 07:14:38;;;;;;;4.50;1.83;;;17.20;82.60;;;;;;5072973;28;20021;-76
2021/08/29 07:17:04;;;;;;;5.97;1.92;;;17.20;82.60;;;;;;5073009;28;20013;-76
2021/08/29 07:19:30;;;;;;;3.80;1.45;;;17.20;82.60;;;;;;5054842;28;20119;-76
2021/08/29 07:21:56;;;;;;;5.05;1.90;;;17.20;82.60;;;;;;5054355;28;20067;-77
2021/08/29 07:24:21;;;;;;;5.70;1.90;;;17.20;82.60;;;;;;5054953;28;20027;-76
2021/08/29 07:26:47;;;;;;;7.65;2.00;;;17.30;82.60;;;;;;5072673;28;20407;-77
2021/08/29 07:29:12;;;;;;;7.35;2.03;;;17.30;82.60;;;;;;5072870;28;20058;-77
2021/08/29 07:31:38;;;;;;;4.00;1.80;;;17.20;82.60;;;;;;5072712;28;20032;-77
2021/08/29 07:34:04;;;;;;;4.47;2.05;;;17.20;82.70;;;;;;5054813;28;20021;-77
2021/08/29 07:36:29;;;;;;;3.67;1.80;;;17.20;82.80;;;;;;5054723;28;20050;-77
2021/08/29 07:38:55;;;;;;;7.75;1.98;;;17.20;82.80;;;;;;5055256;28;20017;-77
2021/08/29 07:41:21;;;;;;;4.93;1.45;;;17.20;82.70;;;;;;5054770;28;20569;-77
2021/08/29 07:43:47;;;;;;;6.15;1.90;;;17.20;82.60;;;;;;5054773;28;20048;-77
2021/08/29 07:46:12;;;;;;;3.45;1.42;;;17.30;82.70;;;;;;5072867;28;20124;-76
2021/08/29 07:48:38;;;;;;;5.40;1.73;;;17.30;82.60;;;;;;5072691;28;20039;-77
2021/08/29 07:51:04;;;;;;;7.38;2.00;;;17.30;82.60;;;;;;5054630;28;20023;-77
2021/08/29 07:53:30;;;;;;;6.30;2.10;;;17.20;82.70;;;;;;5054535;28;20115;-76
2021/08/29 07:55:55;;;;;;;9.60;2.00;;;17.20;83.00;;;;;;5054645;28;20016;-77
2021/08/29 07:58:21;;;;;;;4.88;1.83;;;17.10;83.20;;;;;;5072521;28;20025;-76
2021/08/29 08:00:47;;;;;;;5.20;1.70;;;17.10;83.50;;;;;;5054646;28;20021;-77
2021/08/29 08:03:13;;;;;;;4.55;1.70;;;17.00;83.70;;;;;;5054802;28;20110;-77
2021/08/29 08:05:38;;;;;;;4.47;1.98;;;17.00;84.00;;;;;;5072404;28;20032;-76
2021/08/29 08:08:04;;;;;;;7.22;2.00;;;16.90;84.30;;;;;;5072590;28;20096;-77
2021/08/29 08:10:31;;;;;;;4.72;1.85;;;16.80;84.40;;;;;;5054481;28;20172;-77
2021/08/29 08:12:56;;;;;;;3.00;1.52;;;16.80;84.60;;;;;;5072449;28;20025;-77
2021/08/29 08:15:22;;;;;;;4.03;1.77;;;16.80;84.80;;;;;;5072454;28;20029;-77
2021/08/29 08:17:48;;;;;;;3.78;1.52;;;16.80;85.00;;;;;;5054470;28;20063;-77
2021/08/29 08:20:14;;;;;;;5.82;1.58;;;16.80;85.20;;;;;;5054291;28;20017;-77
2021/08/29 08:22:40;;;;;;;3.90;1.60;;;16.80;85.30;;;;;;5072278;28;20077;-77
2021/08/29 08:25:07;;;;;;;4.95;1.90;;;16.80;85.30;;;;;;5072097;28;20562;-77
2021/08/29 08:27:32;;;;;;;3.67;1.77;;;16.80;85.40;;;;;;5072259;28;20028;-77
2021/08/29 08:29:58;;;;;;;3.90;1.90;;;16.80;85.50;;;;;;5054471;28;20039;-77
2021/08/29 08:32:23;;;;;;;5.25;2.20;;;16.80;85.60;;;;;;5072078;28;20488;-77
2021/08/29 08:34:50;;;;;;;4.47;1.75;;;16.70;85.50;;;;;;5057530;28;20056;-76
2021/08/29 08:37:15;;;;;;;3.10;1.38;;;16.60;85.50;;;;;;5058044;28;20102;-78
2021/08/29 08:39:41;;;;;;;3.40;1.42;;;16.60;85.70;;;;;;5075731;28;20056;-78
2021/08/29 08:42:06;;;;;;;3.10;1.63;;;16.60;85.70;;;;;;5058100;28;20128;-77
2021/08/29 08:44:33;;;;;;;4.20;1.60;;;16.50;85.80;;;;;;5075624;28;20025;-77
2021/08/29 08:47:04;;;;;;;3.78;1.80;;;16.50;85.70;;;;;;5058642;28;20025;-77
2021/08/29 08:49:33;;;;;;;3.47;1.45;;;16.50;85.80;;;;;;5057660;28;20048;-77
2021/08/29 08:52:02;;;;;;;3.85;1.50;;;16.60;85.90;;;;;;5057731;28;20042;-78
2021/08/29 08:54:29;;;;;;;3.47;1.60;;;16.60;85.90;;;;;;5075572;28;20508;-77
2021/08/29 08:56:56;;;;;;;2.30;1.50;;;16.60;85.90;;;;;;5075868;28;20490;-77
2021/08/29 08:59:22;;;;;;;3.53;1.50;;;16.70;85.90;;;;;;5075827;28;20008;-77
2021/08/29 09:01:47;;;;;;;4.20;1.58;;;16.70;85.80;;;;;;5091498;28;20032;-77
2021/08/29 09:04:13;;;;;;;4.03;1.50;;;16.70;85.90;;;;;;5057745;28;20396;-77
2021/08/29 09:06:38;;;;;;;3.72;1.42;;;16.80;85.90;;;;;;5057707;28;20016;-77
2021/08/29 09:09:04;;;;;;;2.97;1.60;;;16.80;85.80;;;;;;5057505;28;20021;-77
2021/08/29 09:11:34;;;;;;;4.85;1.83;;;16.80;85.90;;;;;;5075372;28;20099;-77
2021/08/29 09:14:01;;;;;;;3.05;1.55;;;16.70;86.00;;;;;;5075324;28;20093;-77
2021/08/29 09:16:27;;;;;;;5.07;1.88;;;16.70;86.10;;;;;;5075211;28;20013;-78
2021/08/29 09:18:56;;;;;;;4.20;1.77;;;16.70;86.10;;;;;;5075485;28;20036;-77
2021/08/29 09:21:31;;;;;;;4.18;1.80;;;16.70;86.90;;;;;;5075150;28;20028;-77
2021/08/29 09:23:59;;;;;;;3.28;1.50;;;16.80;86.40;;;;;;5075089;28;20067;-77
2021/08/29 09:26:26;;;;;;;3.80;1.80;;;16.80;86.30;;;;;;5090497;28;20040;-77
2021/08/29 09:28:56;;;;;;;4.93;2.03;;;16.80;86.20;;;;;;5057417;28;20035;-78
2021/08/29 09:31:21;;;;;;;5.10;2.17;;;16.80;86.30;;;;;;5075042;28;20032;-77
2021/08/29 09:34:01;;;;;;;4.97;1.90;;;16.80;86.30;;;;;;5056935;28;20025;-78
2021/08/29 09:36:34;;;;;;;3.75;1.90;;;16.80;86.50;;;;;;5074886;28;20020;-78
2021/08/29 09:39:14;;;;;;;6.00;2.10;;;16.80;86.50;;;;;;5074931;28;20100;-78
2021/08/29 09:41:41;;;;;;;4.75;1.90;;;16.70;86.60;;;;;;5056749;28;20016;-77
2021/08/29 09:44:19;;;;;;;5.50;1.60;;;16.70;86.70;;;;;;5056644;28;20020;-78
2021/08/29 09:46:54;;;;;;;4.20;1.63;;;16.70;86.80;;;;;;5074375;28;20078;-77
2021/08/29 09:49:34;;;;;;;3.38;1.50;;;16.70;87.10;;;;;;5056704;28;20498;-77
2021/08/29 09:52:06;;;;;;;1.92;1.20;;;16.70;87.20;;;;;;5074800;28;20033;-77
2021/08/29 09:54:32;;;;;;;2.83;1.20;;;16.70;87.20;;;;;;5090814;28;20477;-76
2021/08/29 10:00:19;;;;;;;3.80;1.35;;;16.80;87.20;;;;;;5076263;28;20030;-77
2021/08/29 10:02:45;;;;;;;2.75;1.35;;;16.90;87.10;;;;;;5074709;28;20024;-77
2021/08/29 10:05:20;;;;;;;4.45;1.38;;;16.80;87.10;;;;;;5056950;28;20024;-77
2021/08/29 10:07:57;;;;;;;3.05;1.20;;;16.90;87.40;;;;;;5057291;28;20480;-77
2021/08/29 10:10:26;;;;;;;2.15;1.33;;;16.80;87.40;;;;;;5074563;28;20028;-77
2021/08/29 10:12:53;;;;;;;2.58;1.30;;;16.80;87.60;;;;;;5074945;28;20024;-77
2021/08/29 10:15:19;;;;;;;2.03;1.00;;;16.70;87.70;;;;;;5074218;28;20021;-76
2021/08/29 10:17:46;;;;;;;2.65;1.20;;;16.70;87.90;;;;;;5074134;28;20009;-77
2021/08/29 10:20:16;;;;;;;2.15;1.13;;;16.70;88.10;;;;;;5074125;28;20025;-77
2021/08/29 10:22:43;;;;;;;4.15;1.30;;;16.70;88.20;;;;;;5056385;28;20082;-77
2021/08/29 10:25:10;;;;;;;2.42;1.10;;;16.60;88.20;;;;;;5073868;28;20067;-76
2021/08/29 10:27:41;;;;;;;2.38;1.10;;;16.70;88.30;;;;;;5073862;28;20100;-77
2021/08/29 10:30:09;;;;;;;1.58;1.10;;;16.70;88.20;;;;;;5073783;28;20028;-76
2021/08/29 10:32:39;;;;;;;2.60;1.20;;;16.80;88.20;;;;;;5056000;28;20021;-77
2021/08/29 10:35:10;;;;;;;1.85;1.02;;;16.80;88.20;;;;;;5074156;28;20543;-76
2021/08/29 10:37:37;;;;;;;2.10;0.95;;;16.80;88.10;;;;;;5055816;28;20385;-77
2021/08/29 10:40:05;;;;;;;2.70;1.20;;;16.90;88.10;;;;;;5089316;28;20021;-77
2021/08/29 10:42:35;;;;;;;2.10;0.80;;;16.90;88.00;;;;;;5073777;28;20025;-77
2021/08/29 10:45:01;;;;;;;2.22;1.15;;;16.90;88.00;;;;;;5055565;28;20028;-77
2021/08/29 10:47:27;;;;;;;2.28;1.10;;;16.90;88.00;;;;;;5073590;28;20519;-77
2021/08/29 10:49:55;;;;;;;2.03;1.00;;;16.90;88.00;;;;;;5073618;28;20046;-77
2021/08/29 10:52:21;;;;;;;2.10;1.08;;;16.90;88.20;;;;;;5055551;28;20028;-77
2021/08/29 10:54:52;;;;;;;2.10;1.13;;;16.90;88.30;;;;;;5055763;28;20041;-77
2021/08/29 10:57:35;;;;;;;1.35;1.00;;;16.90;88.50;;;;;;5055517;28;20028;-76
2021/08/29 11:00:26;;;;;;;2.63;1.40;;;16.80;88.60;;;;;;5073132;28;20070;-78
2021/08/29 11:02:52;;;;;;;1.50;1.23;;;16.80;88.60;;;;;;5073666;28;20036;-78
2021/08/29 11:05:29;;;;;;;1.48;0.80;;;16.80;88.70;;;;;;5073278;28;20024;-76
2021/08/29 11:07:57;;;;;;;2.53;0.93;;;16.80;88.80;;;;;;5055351;28;20587;-78
2021/08/29 11:10:37;;;;;;;1.23;0.90;;;16.80;89.00;;;;;;5073285;28;20430;-77
2021/08/29 11:13:28;;;;;;;1.10;0.90;;;16.80;89.10;;;;;;5073258;28;20499;-77
2021/08/29 11:16:14;;;;;;;1.00;0.80;;;16.80;89.20;;;;;;5073248;28;20032;-77
2021/08/29 11:18:59;;;;;;;2.00;0.88;;;16.80;89.20;;;;;;5055165;28;20050;-77
2021/08/29 11:21:47;;;;;;;0.80;0.80;;;16.80;89.30;;;;;;5073057;28;20390;-77
2021/08/29 11:24:13;;;;;;;0.88;0.57;;;16.80;89.30;;;;;;5027075;28;20094;-77
2021/08/29 11:26:42;;;;;;;1.17;0.60;;;16.90;89.40;;;;;;5055014;28;20045;-77
2021/08/29 11:29:39;;;;;;;0.90;0.70;;;16.90;89.40;;;;;;5055072;28;20085;-77
2021/08/29 11:32:05;;;;;;;1.05;0.68;;;16.90;89.50;;;;;;5055232;28;20032;-78
2021/08/29 11:34:31;;;;;;;0.40;0.40;;;16.90;89.50;;;;;;5073229;28;20021;-77
2021/08/29 11:36:57;;;;;;;0.40;0.40;;;16.90;89.60;;;;;;5055224;28;20388;-78
2021/08/29 11:39:36;;;;;;;0.95;0.55;;;16.80;89.60;;;;;;5072872;28;20017;-78
2021/08/29 11:42:12;;;;;;;0.60;0.50;;;16.90;89.80;;;;;;5054889;28;20027;-78
2021/08/29 11:44:38;;;;;;;0.80;0.50;;;16.90;89.80;;;;;;5054758;28;20016;-77
2021/08/29 11:47:05;;;;;;;0.82;0.40;;;16.90;89.80;;;;;;5054897;28;20062;-77
2021/08/29 11:49:31;;;;;;;0.75;0.50;;;16.90;89.80;;;;;;5072702;28;20112;-77
2021/08/29 11:51:57;;;;;;;0.40;0.40;;;16.90;89.90;;;;;;5072737;28;20056;-77
2021/08/29 11:54:22;;;;;;;0.73;0.55;;;17.00;89.90;;;;;;5054650;28;20472;-77
2021/08/29 11:56:48;;;;;;;0.40;0.40;;;17.00;89.90;;;;;;5072690;28;20365;-76
2021/08/29 11:59:34;;;;;;;1.10;0.60;;;17.10;89.90;;;;;;5072718;28;20024;-77
2021/08/29 12:02:01;;;;;;;0.93;0.55;;;17.20;89.90;;;;;;5072802;28;20077;-77
2021/08/29 12:04:27;;;;;;;0.70;0.70;;;17.20;89.70;;;;;;5073286;28;20024;-77
2021/08/29 12:07:05;;;;;;;1.48;0.80;;;17.20;89.60;;;;;;5074043;28;20024;-76
2021/08/29 12:09:41;;;;;;;1.17;0.80;;;17.20;89.70;;;;;;5059863;28;20047;-77
2021/08/29 12:12:07;;;;;;;0.90;0.73;;;17.30;89.80;;;;;;5078558;28;20054;-76
2021/08/29 12:14:33;;;;;;;1.23;1.00;;;17.30;89.70;;;;;;5060353;28;20048;-76
2021/08/29 12:17:02;;;;;;;2.05;0.80;;;17.30;89.80;;;;;;5076895;28;20070;-76
2021/08/29 12:19:30;;;;;;;1.33;1.00;;;17.20;89.80;;;;;;5077150;28;20025;-76
2021/08/29 12:21:56;;;;;;;3.42;1.50;;;17.20;89.90;;;;;;5077708;28;20468;-77
2021/08/29 12:24:40;;;;;;;1.50;1.30;;;17.30;90.00;;;;;;5077444;28;20431;-77
2021/08/29 12:27:17;;;;;;;2.13;1.38;;;17.30;89.90;;;;;;5078750;28;20098;-76
2021/08/29 12:29:46;;;;;;;2.22;1.63;;;17.40;89.90;;;;;;5077631;28;20024;-77
2021/08/29 12:32:17;;;;;;;2.53;1.55;;;17.40;89.80;;;;;;5062507;28;20411;-77
2021/08/29 12:34:53;;;;;;;1.75;1.60;;;17.50;89.70;;;;;;5060124;28;20028;-76
2021/08/29 12:37:19;;;;;;;4.85;2.70;;;17.50;89.60;;;;;;5059421;28;20086;-76
2021/08/29 12:39:54;;;;;;;3.55;2.15;;;17.60;89.50;;;;;;5059523;28;20020;-77
2021/08/29 12:42:24;;;;;;;2.97;2.00;;;17.60;89.40;;;;;;5059300;28;20033;-76
2021/08/29 12:44:49;;;;;;;3.50;2.13;;;17.70;89.50;;;;;;5076684;28;20021;-76
2021/08/29 12:47:16;;;;;;;4.25;1.80;;;17.60;89.40;;;;;;5076834;28;20017;-76
2021/08/29 12:49:42;;;;;;;4.70;2.20;;;17.70;89.40;;;;;;5076630;28;20059;-77
2021/08/29 12:52:15;;;;;;;3.40;1.83;;;17.70;89.40;;;;;;5076202;28;20416;-77
2021/08/29 12:54:41;;;;;;;5.03;1.75;;;17.80;89.40;;;;;;5058357;28;20105;-77